Palermo — V2IA7 — position and weather

sailwx.info

Track history (hours):
 
Tides and Currents Weather Stations Pressure Air Temp Water Temp Dewpoint Dewpoint Depression Visibility Wind Speed Wind Dir Waves Ship Positions

Palermo

Last reported at 2017-Mar-14 19:25 UTC. Time now 2017-Mar-30 02:52 UTC.
Position N 01°14' E 104°02'.
Warning: this ship's position is 15 days out of date.

Length 118 m; draft 5.1 m.

Type: Cargo ship. MMSI: 304255000.

Date/timePositionNaut miles runAvg speedWind from/ knotsBaromVisibWave heightAir tempDewpointWater temp
2017-Mar-14 19:25N 01°14' E 104°02'1214.3
2017-Mar-14 18:33N 01°11' E 103°50'9 9.2
2017-Mar-14 17:33N 01°18' E 103°43'0 0.4
2017-Mar-14 16:31N 01°18' E 103°43'0 0.0
2017-Mar-14 15:31N 01°18' E 103°43'0 0.0
2017-Mar-14 14:25N 01°18' E 103°43'0 0.0
2017-Mar-14 13:25N 01°18' E 103°43'0 0.0
2017-Mar-14 12:31N 01°18' E 103°43'0 0.0
2017-Mar-14 11:28N 01°18' E 103°43'0 0.0
2017-Mar-14 10:31N 01°18' E 103°43'0 0.0
2017-Mar-14 09:31N 01°18' E 103°43'0 0.0
2017-Mar-14 08:28N 01°18' E 103°43'0 0.0
2017-Mar-14 07:31N 01°18' E 103°43'0 0.0
2017-Mar-14 06:28N 01°18' E 103°43'0 0.0
2017-Mar-14 05:25N 01°18' E 103°43'0 0.0
2017-Mar-14 04:28N 01°18' E 103°43'0 0.0
2017-Mar-14 03:31N 01°18' E 103°43'0 0.0
2017-Mar-14 02:31N 01°18' E 103°43'0 0.0
2017-Mar-14 01:28N 01°18' E 103°43'0 0.0
2017-Mar-14 00:31N 01°18' E 103°43'0 0.0
2017-Mar-13 23:31N 01°18' E 103°43'1 0.8
2017-Mar-13 22:33N 01°18' E 103°44'9 8.5
2017-Mar-13 21:33N 01°12' E 103°50'4 1.0
2017-Mar-13 17:15N 01°16' E 103°53'0 0.0
2017-Mar-13 13:24N 01°16' E 103°53'0 0.0
2017-Mar-13 11:24N 01°16' E 103°53'0 0.1
2017-Mar-13 10:33N 01°16' E 103°53'0 0.1
2017-Mar-13 08:27N 01°16' E 103°53'0 0.0
2017-Mar-13 07:15N 01°16' E 103°53'0 0.1
2017-Mar-13 06:21N 01°16' E 103°53'0 0.1
2017-Mar-13 05:27N 01°16' E 103°53'0 0.0
2017-Mar-13 04:27N 01°16' E 103°53'0 0.1
2017-Mar-13 03:30N 01°16' E 103°53'0 0.0
2017-Mar-13 01:33N 01°16' E 103°53'0 0.0
2017-Mar-13 00:33N 01°16' E 103°53'0 0.0
2017-Mar-12 22:30N 01°16' E 103°53'0 0.0
2017-Mar-12 19:15N 01°16' E 103°53'0 0.0
2017-Mar-12 13:30N 01°16' E 103°53'0 0.0
2017-Mar-12 12:09N 01°16' E 103°53'0 0.1
2017-Mar-12 11:33N 01°16' E 103°53'0 0.0
2017-Mar-12 08:09N 01°16' E 103°53'0 0.0
2017-Mar-12 04:33N 01°16' E 103°53'0 0.1
2017-Mar-12 03:06N 01°16' E 103°53'0 0.0
2017-Mar-12 01:21N 01°16' E 103°53'0 0.0
2017-Mar-12 00:15N 01°16' E 103°53'0 0.1
2017-Mar-11 23:27N 01°16' E 103°53'0 0.0
2017-Mar-11 21:30N 01°16' E 103°53'0 0.0
2017-Mar-11 20:18N 01°16' E 103°53'0 0.0
2017-Mar-11 02:12N 01°16' E 103°53'0 0.1
2017-Mar-10 22:33N 01°16' E 103°53'6 5.8
2017-Mar-10 21:33N 01°15' E 103°59'  
Track history (hours):
 
Tides and Currents Weather Stations Pressure Air Temp Water Temp Dewpoint Dewpoint Depression Visibility Wind Speed Wind Dir Waves Ship Positions

Palermo

Last reported at 2017-Mar-14 19:25 UTC. Time now 2017-Mar-30 02:52 UTC.
Position N 01°14' E 104°02'.
Warning: this ship's position is 15 days out of date.

Length 118 m; draft 5.1 m.

Type: Cargo ship. MMSI: 304255000.

Date/timePositionNaut miles runAvg speedWind from/ knotsBaromVisibWave heightAir tempDewpointWater temp
2017-Mar-14 19:25N 01°14' E 104°02'1214.3
2017-Mar-14 18:33N 01°11' E 103°50'9 9.2
2017-Mar-14 17:33N 01°18' E 103°43'0 0.4
2017-Mar-14 16:31N 01°18' E 103°43'0 0.0
2017-Mar-14 15:31N 01°18' E 103°43'0 0.0
2017-Mar-14 14:25N 01°18' E 103°43'0 0.0
2017-Mar-14 13:25N 01°18' E 103°43'0 0.0
2017-Mar-14 12:31N 01°18' E 103°43'0 0.0
2017-Mar-14 11:28N 01°18' E 103°43'0 0.0
2017-Mar-14 10:31N 01°18' E 103°43'0 0.0
2017-Mar-14 09:31N 01°18' E 103°43'0 0.0
2017-Mar-14 08:28N 01°18' E 103°43'0 0.0
2017-Mar-14 07:31N 01°18' E 103°43'0 0.0
2017-Mar-14 06:28N 01°18' E 103°43'0 0.0
2017-Mar-14 05:25N 01°18' E 103°43'0 0.0
2017-Mar-14 04:28N 01°18' E 103°43'0 0.0
2017-Mar-14 03:31N 01°18' E 103°43'0 0.0
2017-Mar-14 02:31N 01°18' E 103°43'0 0.0
2017-Mar-14 01:28N 01°18' E 103°43'0 0.0
2017-Mar-14 00:31N 01°18' E 103°43'0 0.0
2017-Mar-13 23:31N 01°18' E 103°43'1 0.8
2017-Mar-13 22:33N 01°18' E 103°44'9 8.5
2017-Mar-13 21:33N 01°12' E 103°50'4 1.0
2017-Mar-13 17:15N 01°16' E 103°53'0 0.0
2017-Mar-13 13:24N 01°16' E 103°53'0 0.0
2017-Mar-13 11:24N 01°16' E 103°53'0 0.1
2017-Mar-13 10:33N 01°16' E 103°53'0 0.1
2017-Mar-13 08:27N 01°16' E 103°53'0 0.0
2017-Mar-13 07:15N 01°16' E 103°53'0 0.1
2017-Mar-13 06:21N 01°16' E 103°53'0 0.1
2017-Mar-13 05:27N 01°16' E 103°53'0 0.0
2017-Mar-13 04:27N 01°16' E 103°53'0 0.1
2017-Mar-13 03:30N 01°16' E 103°53'0 0.0
2017-Mar-13 01:33N 01°16' E 103°53'0 0.0
2017-Mar-13 00:33N 01°16' E 103°53'0 0.0
2017-Mar-12 22:30N 01°16' E 103°53'0 0.0
2017-Mar-12 19:15N 01°16' E 103°53'0 0.0
2017-Mar-12 13:30N 01°16' E 103°53'0 0.0
2017-Mar-12 12:09N 01°16' E 103°53'0 0.1
2017-Mar-12 11:33N 01°16' E 103°53'0 0.0
2017-Mar-12 08:09N 01°16' E 103°53'0 0.0
2017-Mar-12 04:33N 01°16' E 103°53'0 0.1
2017-Mar-12 03:06N 01°16' E 103°53'0 0.0
2017-Mar-12 01:21N 01°16' E 103°53'0 0.0
2017-Mar-12 00:15N 01°16' E 103°53'0 0.1
2017-Mar-11 23:27N 01°16' E 103°53'0 0.0
2017-Mar-11 21:30N 01°16' E 103°53'0 0.0
2017-Mar-11 20:18N 01°16' E 103°53'0 0.0
2017-Mar-11 02:12N 01°16' E 103°53'0 0.1
2017-Mar-10 22:33N 01°16' E 103°53'6 5.8
2017-Mar-10 21:33N 01°15' E 103°59'  

Dump ship's entire track history